Time;durP1;ratioP1;P1;durP2;ratioP2;P2;SDS_P1;SDS_P2;PMS_P1;PMS_P2;Temp;Humidity;BMP_temperature;BMP_pressure;BME280_temperature;BME280_humidity;BME280_pressure;Samples;Min_cycle;Max_cycle;Signal;HPM_P1;HPM_P2
2020/12/27 00:00:01;;;;;;;7.47;5.07;;;;;;;-1.79;84.77;96108.81;5117359;28;20448;-79
2020/12/27 00:02:27;;;;;;;10.60;4.33;;;;;;;-1.80;84.89;96101.34;5112935;28;20524;-79
2020/12/27 00:04:53;;;;;;;6.90;4.73;;;;;;;-1.85;85.31;96099.38;5103393;28;20436;-82
2020/12/27 00:07:20;;;;;;;6.30;3.90;;;;;;;-1.79;84.74;96098.25;5104443;28;20439;-82
2020/12/27 00:09:46;;;;;;;8.10;4.63;;;;;;;-1.84;85.28;96090.22;5103110;28;20433;-82
2020/12/27 00:12:13;;;;;;;6.07;4.43;;;;;;;-1.85;84.60;96076.28;5106074;28;20487;-81
2020/12/27 00:14:40;;;;;;;9.57;4.70;;;;;;;-1.80;85.10;96077.53;5103159;28;20445;-80
2020/12/27 00:17:08;;;;;;;9.10;5.40;;;;;;;-1.73;84.17;96071.84;5101294;28;20598;-80
2020/12/27 00:19:35;;;;;;;5.97;4.70;;;;;;;-1.74;84.06;96070.41;5100942;28;20468;-79
2020/12/27 00:22:01;;;;;;;7.47;4.60;;;;;;;-1.78;84.21;96069.88;5100897;28;20468;-79
2020/12/27 00:24:28;;;;;;;10.60;4.70;;;;;;;-1.81;84.08;96058.31;5100842;28;20837;-82
2020/12/27 00:26:54;;;;;;;10.37;4.60;;;;;;;-1.87;84.64;96046.22;5099292;28;20433;-79
2020/12/27 00:29:22;;;;;;;6.67;4.10;;;;;;;-1.87;84.88;96038.28;5097584;28;20444;-78
2020/12/27 00:31:49;;;;;;;11.40;4.67;;;;;;;-1.89;84.61;96038.03;5096531;28;20456;-78
2020/12/27 00:34:16;;;;;;;5.47;4.60;;;;;;;-1.85;84.33;96026.06;5097584;28;20959;-78
2020/12/27 00:36:42;;;;;;;10.70;5.10;;;;;;;-1.94;84.88;96017.56;5097281;28;20525;-79
2020/12/27 00:39:08;;;;;;;8.13;4.40;;;;;;;-1.98;84.86;96012.50;5098039;28;20504;-80
2020/12/27 00:41:35;;;;;;;6.73;4.83;;;;;;;-1.91;85.72;96008.72;5098521;28;20504;-79
2020/12/27 00:44:02;;;;;;;9.43;5.17;;;;;;;-1.92;85.56;96001.97;5097694;28;20820;-79
2020/12/27 00:46:30;;;;;;;6.73;4.23;;;;;;;-1.90;85.06;95987.09;5097489;28;20441;-79
2020/12/27 00:48:56;;;;;;;8.37;5.10;;;;;;;-2.01;85.39;95980.97;5097788;28;20481;-82
2020/12/27 00:51:24;;;;;;;7.20;4.50;;;;;;;-2.00;85.26;95987.69;5100699;28;20469;-81
2020/12/27 00:53:52;;;;;;;7.20;4.03;;;;;;;-2.04;85.27;95977.34;5101251;28;20484;-82
2020/12/27 00:56:18;;;;;;;10.13;5.03;;;;;;;-2.02;85.04;95974.97;5101176;28;20850;-81
2020/12/27 00:58:45;;;;;;;7.93;4.90;;;;;;;-1.99;84.87;95955.53;5101521;28;20435;-81
2020/12/27 01:01:11;;;;;;;5.23;4.13;;;;;;;-1.98;84.36;95954.34;5099822;28;20467;-80
2020/12/27 01:03:40;;;;;;;8.80;4.67;;;;;;;-1.98;85.33;95943.03;5098167;28;20448;-78
2020/12/27 01:06:07;;;;;;;7.80;4.07;;;;;;;-2.01;85.35;95936.06;5096899;28;20527;-78
2020/12/27 01:08:33;;;;;;;8.70;5.40;;;;;;;-2.02;84.66;95926.66;5097939;28;20959;-82
2020/12/27 01:11:00;;;;;;;8.30;4.97;;;;;;;-2.08;85.24;95933.81;5098662;28;20463;-78
2020/12/27 01:13:26;;;;;;;10.93;5.23;;;;;;;-2.13;85.37;95922.00;5096369;28;20996;-78
2020/12/27 01:15:53;;;;;;;9.63;4.47;;;;;;;-2.03;85.60;95914.63;5097392;28;20441;-79
2020/12/27 01:18:20;;;;;;;6.90;3.33;;;;;;;-2.09;85.77;95916.50;5097504;28;20535;-79
2020/12/27 01:20:47;;;;;;;8.53;4.70;;;;;;;-2.01;85.50;95917.56;5097027;28;20444;-79
2020/12/27 01:23:13;;;;;;;8.80;5.17;;;;;;;-2.01;84.74;95918.28;5098177;28;20523;-83
2020/12/27 01:25:40;;;;;;;8.50;4.87;;;;;;;-1.99;85.22;95915.16;5097993;28;20479;-79
2020/12/27 01:28:06;;;;;;;11.17;5.57;;;;;;;-2.11;85.59;95903.78;5099143;28;20448;-80
2020/12/27 01:30:32;;;;;;;10.37;5.47;;;;;;;-2.14;86.00;95906.63;5099095;28;20437;-82
2020/12/27 01:32:59;;;;;;;10.33;5.60;;;;;;;-2.17;85.93;95910.91;5098339;28;20496;-78
2020/12/27 01:35:25;;;;;;;9.70;5.00;;;;;;;-2.05;86.24;95896.63;5097211;28;20474;-79
2020/12/27 01:37:52;;;;;;;8.33;5.13;;;;;;;-2.07;86.33;95893.72;5096401;28;20466;-78
2020/12/27 01:40:19;;;;;;;7.40;4.37;;;;;;;-2.08;86.19;95892.28;5099602;28;20474;-80
2020/12/27 01:42:53;;;;;;;8.00;5.17;;;;;;;-1.99;85.46;95878.16;5101084;28;20453;-80
2020/12/27 01:45:20;;;;;;;7.90;4.00;;;;;;;-1.99;86.00;95870.22;5101734;28;20451;-80
2020/12/27 01:47:50;;;;;;;6.20;4.70;;;;;;;-2.06;85.93;95862.72;5102071;28;20452;-80
2020/12/27 01:50:16;;;;;;;9.50;3.87;;;;;;;-2.03;86.39;95861.78;5102005;28;20479;-82
2020/12/27 01:52:42;;;;;;;6.47;5.10;;;;;;;-1.96;85.89;95858.72;5100944;28;20468;-82
2020/12/27 01:55:10;;;;;;;11.30;5.00;;;;;;;-1.98;86.48;95853.19;5097639;28;20475;-78
2020/12/27 01:58:03;;;;;;;8.87;5.60;;;;;;;-2.04;86.04;95844.50;5095275;28;20491;-78
2020/12/27 02:00:30;;;;;;;9.40;5.70;;;;;;;-2.06;86.96;95837.03;5096794;28;20963;-82
2020/12/27 02:02:56;;;;;;;8.57;5.10;;;;;;;-2.13;87.67;95826.16;5100674;28;20473;-79
2020/12/27 02:05:23;;;;;;;9.87;5.50;;;;;;;-2.04;86.88;95826.00;5096261;28;20447;-79
2020/12/27 02:07:50;;;;;;;11.30;5.90;;;;;;;-2.05;87.22;95801.50;5096357;28;20451;-79
2020/12/27 02:10:18;;;;;;;9.50;4.23;;;;;;;-1.92;87.30;95791.25;5096324;28;20439;-79
2020/12/27 02:12:44;;;;;;;9.40;6.27;;;;;;;-1.94;87.31;95769.13;5096332;28;20485;-79
2020/12/27 02:15:10;;;;;;;13.63;5.20;;;;;;;-2.00;87.09;95765.72;5100179;28;20505;-80
2020/12/27 02:17:37;;;;;;;6.97;4.43;;;;;;;-1.96;87.57;95760.94;5100786;28;20532;-79
2020/12/27 02:20:05;;;;;;;7.20;4.30;;;;;;;-2.00;87.36;95769.06;5100695;28;20790;-80
2020/12/27 02:22:32;;;;;;;7.30;4.83;;;;;;;-1.98;86.78;95755.41;5099313;28;20456;-79
2020/12/27 02:24:59;;;;;;;8.33;4.77;;;;;;;-1.95;86.99;95749.91;5095688;28;20444;-79
2020/12/27 02:27:26;;;;;;;5.33;3.97;;;;;;;-1.95;86.52;95741.97;5095432;28;20436;-79
2020/12/27 02:29:52;;;;;;;8.87;4.90;;;;;;;-2.00;86.55;95744.56;5095666;28;20444;-79
2020/12/27 02:32:18;;;;;;;8.80;4.77;;;;;;;-1.93;86.07;95733.56;5095219;28;20495;-78
2020/12/27 02:34:44;;;;;;;10.83;4.63;;;;;;;-1.96;86.44;95714.09;5095388;28;20436;-79
2020/12/27 02:37:11;;;;;;;8.77;4.93;;;;;;;-1.99;85.41;95711.66;5101860;28;20437;-82
2020/12/27 02:39:37;;;;;;;6.50;3.40;;;;;;;-1.99;84.62;95703.75;5122553;28;20483;-79
2020/12/27 02:42:04;;;;;;;9.63;5.27;;;;;;;-1.98;84.56;95699.91;5122910;28;20448;-81
2020/12/27 02:47:05;;;;;;;7.30;4.57;;;;;;;-1.90;84.17;95674.47;5123130;28;20463;-81
2020/12/27 02:49:31;;;;;;;8.83;4.70;;;;;;;-2.06;85.01;95664.53;5111687;28;20436;-82
2020/12/27 02:51:57;;;;;;;8.50;4.90;;;;;;;-2.03;84.31;95656.41;5099516;28;20476;-82
2020/12/27 02:54:24;;;;;;;7.93;4.70;;;;;;;-1.99;84.22;95646.34;5100609;28;20424;-82
2020/12/27 02:56:50;;;;;;;6.70;4.23;;;;;;;-1.99;84.60;95643.69;5099193;28;20440;-79
2020/12/27 02:59:19;;;;;;;6.90;4.57;;;;;;;-2.04;84.70;95633.09;5098005;28;20482;-79
2020/12/27 03:01:45;;;;;;;8.60;4.50;;;;;;;-2.12;84.75;95632.09;5097855;28;20464;-80
2020/12/27 03:04:12;;;;;;;7.00;5.00;;;;;;;-2.11;85.90;95625.63;5098175;28;20437;-80
2020/12/27 03:06:38;;;;;;;8.63;5.03;;;;;;;-2.18;85.08;95619.59;5097968;28;20969;-82
2020/12/27 03:09:04;;;;;;;10.33;4.83;;;;;;;-2.10;85.55;95611.94;5100022;28;20440;-82
2020/12/27 03:11:31;;;;;;;6.63;4.57;;;;;;;-2.21;85.32;95607.31;5098433;28;20456;-80
2020/12/27 03:13:57;;;;;;;8.40;4.07;;;;;;;-2.14;85.46;95597.50;5099293;28;20852;-82
2020/12/27 03:16:24;;;;;;;5.40;4.50;;;;;;;-2.22;85.86;95584.75;5098478;28;20440;-82
2020/12/27 03:18:51;;;;;;;6.83;5.07;;;;;;;-2.29;86.59;95581.84;5100619;28;20428;-81
2020/12/27 03:21:17;;;;;;;7.40;5.13;;;;;;;-2.28;85.57;95578.72;5099440;28;20539;-80
2020/12/27 03:23:44;;;;;;;10.00;5.83;;;;;;;-2.22;86.47;95576.09;5107349;28;20458;-79
2020/12/27 03:26:10;;;;;;;9.27;5.40;;;;;;;-2.22;85.52;95571.53;5101672;28;20447;-80
2020/12/27 03:28:37;;;;;;;9.47;4.87;;;;;;;-2.26;86.19;95563.13;5101026;28;20455;-81
2020/12/27 03:31:03;;;;;;;9.43;5.90;;;;;;;-2.28;85.51;95562.88;5100174;28;20459;-79
2020/12/27 03:33:30;;;;;;;8.53;4.77;;;;;;;-2.28;85.63;95564.78;5099689;28;20537;-80
2020/12/27 03:35:56;;;;;;;8.60;4.50;;;;;;;-2.33;86.14;95562.84;5099021;28;20497;-79
2020/12/27 03:38:23;;;;;;;8.10;4.97;;;;;;;-2.29;85.46;95571.28;5097689;28;20909;-81
2020/12/27 03:40:50;;;;;;;9.03;4.70;;;;;;;-2.35;86.22;95571.22;5101399;28;20577;-82
2020/12/27 03:43:16;;;;;;;8.90;5.10;;;;;;;-2.37;86.66;95567.63;5102038;28;20970;-82
2020/12/27 03:45:42;;;;;;;10.67;5.70;;;;;;;-2.41;86.55;95562.56;5102447;28;20425;-82
2020/12/27 03:48:09;;;;;;;6.33;4.70;;;;;;;-2.35;86.73;95555.38;5103330;28;20455;-80
2020/12/27 03:50:37;;;;;;;8.73;4.97;;;;;;;-2.19;85.84;95549.44;5102072;28;20520;-80
2020/12/27 03:53:05;;;;;;;7.10;4.87;;;;;;;-2.16;85.51;95535.28;5100335;28;20844;-78
2020/12/27 03:55:31;;;;;;;6.33;4.70;;;;;;;-2.26;86.24;95522.78;5096707;28;20948;-78
2020/12/27 03:57:58;;;;;;;10.50;5.53;;;;;;;-2.25;86.33;95522.28;5115078;28;20444;-80
2020/12/27 04:00:24;;;;;;;8.93;5.83;;;;;;;-2.22;85.73;95508.13;5119018;28;20469;-78
2020/12/27 04:02:51;;;;;;;6.53;4.13;;;;;;;-2.24;85.50;95497.34;5119399;28;20465;-78
2020/12/27 04:05:17;;;;;;;7.67;4.97;;;;;;;-2.20;85.70;95491.81;5120695;28;20438;-79
2020/12/27 04:07:44;;;;;;;7.53;4.67;;;;;;;-2.19;84.48;95477.41;5113558;28;20448;-81
2020/12/27 04:10:11;;;;;;;10.63;4.93;;;;;;;-2.22;84.15;95467.78;5099525;28;20441;-81
2020/12/27 04:12:37;;;;;;;15.00;4.90;;;;;;;-2.26;84.21;95454.84;5099381;28;20542;-80
2020/12/27 04:15:03;;;;;;;6.00;4.07;;;;;;;-2.25;84.53;95456.25;5099665;28;20476;-78
2020/12/27 04:17:30;;;;;;;8.80;4.50;;;;;;;-2.28;84.37;95446.66;5099333;28;20427;-78
2020/12/27 04:19:56;;;;;;;6.60;4.00;;;;;;;-2.33;84.03;95444.72;5096656;28;20440;-79
2020/12/27 04:22:22;;;;;;;12.13;6.53;;;;;;;-2.39;84.72;95449.28;5095846;28;20509;-80
2020/12/27 04:24:50;;;;;;;8.60;5.27;;;;;;;-2.38;84.91;95437.50;5096110;28;20441;-79
2020/12/27 04:27:16;;;;;;;8.10;4.43;;;;;;;-2.36;84.98;95431.75;5095690;28;20933;-80
2020/12/27 04:29:43;;;;;;;11.13;5.00;;;;;;;-2.32;84.98;95424.31;5096083;28;20436;-79
2020/12/27 04:32:09;;;;;;;7.10;4.80;;;;;;;-2.36;85.00;95415.91;5095378;28;20449;-79
2020/12/27 04:34:35;;;;;;;8.57;4.70;;;;;;;-2.49;85.42;95416.34;5098239;28;20448;-82
2020/12/27 04:37:02;;;;;;;5.87;4.53;;;;;;;-2.39;85.61;95404.38;5098815;28;20509;-81
2020/12/27 04:39:28;;;;;;;9.53;5.60;;;;;;;-2.42;85.50;95399.34;5098615;28;20470;-83
2020/12/27 04:41:55;;;;;;;6.97;4.50;;;;;;;-2.51;85.52;95395.00;5098509;28;20464;-81
2020/12/27 04:44:22;;;;;;;8.47;4.90;;;;;;;-2.52;85.75;95396.19;5099185;28;20440;-81
2020/12/27 04:46:49;;;;;;;6.87;4.37;;;;;;;-2.52;85.76;95395.47;5099248;28;20501;-79
2020/12/27 04:49:16;;;;;;;8.80;5.20;;;;;;;-2.58;86.34;95384.91;5098501;28;20448;-79
2020/12/27 04:51:43;;;;;;;14.27;5.17;;;;;;;-2.52;86.12;95376.97;5098105;28;20553;-79
2020/12/27 04:54:10;;;;;;;5.70;4.20;;;;;;;-2.54;85.57;95376.75;5097614;28;20483;-79
2020/12/27 04:56:41;;;;;;;7.90;4.50;;;;;;;-2.66;85.99;95376.00;5098769;28;20432;-79
2020/12/27 04:59:08;;;;;;;9.87;5.37;;;;;;;-2.54;85.58;95360.91;5098171;28;20478;-81
2020/12/27 05:01:38;;;;;;;7.60;4.97;;;;;;;-2.51;85.56;95352.03;5098713;28;20581;-81
2020/12/27 05:04:04;;;;;;;8.53;5.20;;;;;;;-2.48;85.56;95351.06;5098664;28;20440;-81
2020/12/27 05:06:31;;;;;;;9.10;5.10;;;;;;;-2.49;85.28;95349.63;5098304;28;20437;-81
2020/12/27 05:08:59;;;;;;;7.70;5.13;;;;;;;-2.56;85.15;95350.09;5097993;28;20869;-81
2020/12/27 05:11:28;;;;;;;7.97;5.00;;;;;;;-2.52;85.05;95342.66;5097447;28;20452;-80
2020/12/27 05:13:55;;;;;;;7.70;5.17;;;;;;;-2.50;85.68;95345.53;5096915;28;20559;-80
2020/12/27 05:16:22;;;;;;;7.40;4.70;;;;;;;-2.57;85.59;95343.38;5097095;28;20498;-80
2020/12/27 05:18:51;;;;;;;9.87;5.63;;;;;;;-2.63;85.53;95338.06;5096997;28;20769;-80
2020/12/27 05:21:19;;;;;;;8.80;4.30;;;;;;;-2.62;85.55;95334.25;5097487;28;20472;-80
2020/12/27 05:23:46;;;;;;;9.10;5.50;;;;;;;-2.60;86.27;95331.84;5096979;28;20445;-80
2020/12/27 05:26:12;;;;;;;9.57;6.50;;;;;;;-2.63;85.87;95321.53;5098144;28;20921;-81
2020/12/27 05:28:39;;;;;;;11.83;7.10;;;;;;;-2.64;86.58;95304.97;5098318;28;20536;-81
2020/12/27 05:31:15;;;;;;;7.50;4.77;;;;;;;-2.64;86.44;95306.91;5098246;28;20457;-81
2020/12/27 05:33:43;;;;;;;7.83;5.47;;;;;;;-2.73;87.34;95297.28;5098233;28;20460;-83
2020/12/27 05:36:11;;;;;;;10.67;5.87;;;;;;;-2.74;86.92;95295.84;5097966;28;20843;-82
2020/12/27 05:38:38;;;;;;;8.70;5.13;;;;;;;-2.74;87.02;95291.28;5097547;28;20848;-80
2020/12/27 05:41:05;;;;;;;7.20;4.43;;;;;;;-2.64;86.75;95291.06;5096840;28;20464;-79
2020/12/27 05:43:32;;;;;;;7.63;5.47;;;;;;;-2.59;86.33;95295.63;5097769;28;20519;-81
2020/12/27 05:45:58;;;;;;;11.60;5.40;;;;;;;-2.70;87.28;95283.16;5100038;28;20501;-81
2020/12/27 05:48:25;;;;;;;9.97;5.30;;;;;;;-2.73;87.01;95276.19;5099319;28;20464;-80
2020/12/27 05:50:53;;;;;;;10.50;6.20;;;;;;;-2.72;87.53;95272.31;5099489;28;20462;-81
2020/12/27 05:53:20;;;;;;;11.03;5.20;;;;;;;-2.84;87.50;95270.88;5099877;28;20488;-80
2020/12/27 05:55:49;;;;;;;8.13;5.00;;;;;;;-2.72;87.30;95251.94;5099713;28;20464;-83
2020/12/27 05:58:20;;;;;;;8.20;4.93;;;;;;;-2.70;87.57;95243.56;5097324;28;20504;-83
2020/12/27 06:00:51;;;;;;;8.77;5.60;;;;;;;-2.73;86.52;95234.69;5098411;28;20937;-82
2020/12/27 06:03:20;;;;;;;10.90;5.40;;;;;;;-2.81;87.52;95219.78;5099586;28;20439;-83
2020/12/27 06:06:08;;;;;;;8.90;5.37;;;;;;;-2.68;87.13;95217.38;5098676;28;20497;-83
2020/12/27 06:09:04;;;;;;;10.03;6.03;;;;;;;-2.59;87.15;95209.22;5099123;28;20433;-83
2020/12/27 06:11:54;;;;;;;10.57;6.03;;;;;;;-2.52;86.79;95210.66;5119140;28;20455;-81
2020/12/27 06:15:03;;;;;;;9.13;5.87;;;;;;;-2.48;86.51;95206.59;5119191;28;20464;-81
2020/12/27 06:17:48;;;;;;;7.37;5.30;;;;;;;-2.49;86.65;95193.84;5119260;28;20421;-79
2020/12/27 06:20:18;;;;;;;9.60;5.93;;;;;;;-2.46;86.22;95190.25;5112685;28;20424;-83
2020/12/27 06:22:48;;;;;;;8.97;5.70;;;;;;;-2.41;86.39;95179.69;5094909;28;20460;-80
2020/12/27 06:25:15;;;;;;;8.47;5.17;;;;;;;-2.35;86.22;95183.03;5095075;28;20464;-80
2020/12/27 06:27:42;;;;;;;11.93;6.53;;;;;;;-2.37;85.79;95161.66;5095975;28;20429;-81
2020/12/27 06:30:10;;;;;;;8.30;5.80;;;;;;;-2.35;86.08;95159.25;5096947;28;20436;-81
2020/12/27 06:32:45;;;;;;;12.43;6.70;;;;;;;-2.36;86.00;95143.91;5096575;28;20499;-81
2020/12/27 06:35:12;;;;;;;9.97;5.80;;;;;;;-2.34;85.81;95136.22;5096373;28;20491;-81
2020/12/27 06:37:40;;;;;;;10.40;6.43;;;;;;;-2.22;85.72;95143.63;5096311;28;20454;-80
2020/12/27 06:40:07;;;;;;;11.53;5.33;;;;;;;-2.23;85.25;95141.47;5095788;28;20447;-80
2020/12/27 06:42:34;;;;;;;6.20;4.63;;;;;;;-2.15;85.63;95137.13;5096235;28;20530;-83
2020/12/27 06:45:00;;;;;;;8.73;6.00;;;;;;;-2.18;85.26;95144.09;5096404;28;20445;-83
2020/12/27 06:47:48;;;;;;;8.80;4.90;;;;;;;-2.16;85.33;95128.47;5096586;28;20448;-83
2020/12/27 06:50:16;;;;;;;12.07;5.63;;;;;;;-2.22;85.20;95132.34;5098522;28;20472;-81
2020/12/27 06:52:42;;;;;;;10.00;5.60;;;;;;;-2.22;85.24;95127.78;5099520;28;20499;-83
2020/12/27 06:55:09;;;;;;;10.77;5.70;;;;;;;-2.28;85.78;95127.06;5099453;28;20834;-82
2020/12/27 06:57:40;;;;;;;10.80;5.77;;;;;;;-2.24;85.45;95130.19;5099604;28;20527;-83
2020/12/27 07:00:23;;;;;;;7.10;4.90;;;;;;;-2.26;85.31;95124.69;5096194;28;20432;-79
2020/12/27 07:03:05;;;;;;;10.17;6.20;;;;;;;-2.33;86.25;95114.63;5096516;28;20486;-79
2020/12/27 07:05:34;;;;;;;9.27;5.50;;;;;;;-2.32;86.31;95118.69;5095057;28;20408;-78
2020/12/27 07:08:02;;;;;;;11.17;6.13;;;;;;;-2.20;85.39;95100.88;5094747;28;20809;-79
2020/12/27 07:10:32;;;;;;;7.60;5.57;;;;;;;-2.20;85.76;95080.47;5094768;28;20925;-78
2020/12/27 07:13:03;;;;;;;5.63;4.37;;;;;;;-2.16;85.32;95077.56;5094920;28;20480;-80
2020/12/27 07:15:29;;;;;;;10.10;6.50;;;;;;;-2.06;85.34;95075.34;5097674;28;20497;-79
2020/12/27 07:17:56;;;;;;;15.30;6.00;;;;;;;-2.19;85.87;95068.69;5100623;28;20447;-82
2020/12/27 07:20:23;;;;;;;9.50;6.00;;;;;;;-2.14;86.31;95075.16;5099509;28;20586;-82
2020/12/27 07:22:55;;;;;;;13.97;6.80;;;;;;;-2.13;86.48;95065.31;5101390;28;20467;-81
2020/12/27 07:25:23;;;;;;;13.97;6.37;;;;;;;-1.97;85.90;95052.00;5103308;28;20585;-81
2020/12/27 07:27:51;;;;;;;8.60;5.60;;;;;;;-1.97;85.90;95046.03;5099496;28;20432;-78
2020/12/27 07:30:19;;;;;;;11.13;6.03;;;;;;;-1.93;85.77;95060.41;5098538;28;20599;-79
2020/12/27 07:32:48;;;;;;;7.93;5.47;;;;;;;-1.87;85.16;95057.72;5100156;28;20492;-79
2020/12/27 07:35:15;;;;;;;10.30;5.90;;;;;;;-1.89;85.27;95052.22;5100650;28;20429;-80
2020/12/27 07:37:44;;;;;;;6.33;4.57;;;;;;;-1.95;85.36;95049.63;5102097;28;20797;-80
2020/12/27 07:40:11;;;;;;;6.53;4.63;;;;;;;-1.90;85.87;95050.78;5101440;28;20436;-80
2020/12/27 07:42:38;;;;;;;10.00;5.43;;;;;;;-1.89;85.98;95049.56;5100980;28;21060;-79
2020/12/27 07:45:10;;;;;;;12.80;5.83;;;;;;;-1.86;85.25;95038.03;5101611;28;20504;-79
2020/12/27 07:47:37;;;;;;;11.27;6.00;;;;;;;-1.86;85.02;95024.81;5099275;28;20565;-79
2020/12/27 07:50:12;;;;;;;15.60;6.27;;;;;;;-1.95;86.19;95017.19;5099862;28;20578;-82
2020/12/27 07:52:50;;;;;;;9.73;6.03;;;;;;;-2.03;86.17;95016.97;5103027;28;20558;-83
2020/12/27 07:55:28;;;;;;;9.73;5.57;;;;;;;-1.92;86.12;95018.84;5111662;28;20452;-80
2020/12/27 07:57:55;;;;;;;10.03;6.17;;;;;;;-1.77;85.31;95012.00;5115364;28;20430;-81
2020/12/27 08:00:25;;;;;;;9.97;5.60;;;;;;;-1.74;85.06;95013.69;5116589;28;20433;-80
2020/12/27 08:02:51;;;;;;;10.77;5.73;;;;;;;-1.74;84.97;95011.03;5112022;28;20453;-80
2020/12/27 08:05:18;;;;;;;10.47;5.57;;;;;;;-1.76;84.81;94994.97;5113989;28;20451;-80
2020/12/27 08:07:45;;;;;;;9.40;5.77;;;;;;;-1.67;84.51;94989.34;5108503;28;20450;-81
2020/12/27 08:10:23;;;;;;;10.00;5.70;;;;;;;-1.59;84.34;94989.53;5103667;28;20443;-80
2020/12/27 08:12:51;;;;;;;12.80;6.33;;;;;;;-1.59;84.19;94978.22;5103898;28;20488;-82
2020/12/27 08:15:18;;;;;;;9.80;5.77;;;;;;;-1.53;84.18;94976.25;5101253;28;20602;-80
2020/12/27 08:17:59;;;;;;;12.17;5.17;;;;;;;-1.54;84.13;94967.63;5100149;28;20502;-80
2020/12/27 08:20:27;;;;;;;11.43;6.23;;;;;;;-1.49;83.96;94963.47;5099900;28;20505;-81
2020/12/27 08:23:00;;;;;;;13.00;5.83;;;;;;;-1.46;83.57;94946.63;5102566;28;20456;-81
2020/12/27 08:25:28;;;;;;;7.30;4.60;;;;;;;-1.48;83.44;94963.00;5102568;28;20433;-82
2020/12/27 08:27:55;;;;;;;7.23;4.50;;;;;;;-1.40;83.30;94960.50;5101576;28;20461;-82
2020/12/27 08:30:22;;;;;;;7.27;4.73;;;;;;;-1.32;83.13;94945.53;5101908;28;20440;-82
2020/12/27 08:32:49;;;;;;;11.17;5.60;;;;;;;-1.34;82.91;94930.16;5101161;28;20506;-78
2020/12/27 08:35:26;;;;;;;7.37;4.40;;;;;;;-1.30;82.95;94925.31;5096569;28;20441;-78
2020/12/27 08:37:59;;;;;;;7.70;4.87;;;;;;;-1.25;83.03;94932.47;5104385;28;20468;-78
2020/12/27 08:40:32;;;;;;;6.63;4.80;;;;;;;-1.25;83.06;94940.41;5118363;28;20408;-81
2020/12/27 08:43:03;;;;;;;7.30;4.97;;;;;;;-1.26;82.94;94936.34;5102404;28;20445;-81
2020/12/27 08:45:36;;;;;;;7.17;4.73;;;;;;;-1.07;82.56;94929.16;5100366;28;20870;-81
2020/12/27 08:48:08;;;;;;;6.43;4.00;;;;;;;-1.03;81.52;94938.75;5101304;28;20436;-82
2020/12/27 08:50:41;;;;;;;5.33;3.80;;;;;;;-0.97;82.03;94939.41;5101622;28;20460;-81
2020/12/27 08:53:10;;;;;;;8.30;4.90;;;;;;;-0.96;81.97;94930.25;5102371;28;20488;-81
2020/12/27 08:55:38;;;;;;;8.10;4.70;;;;;;;-0.92;81.43;94925.38;5100356;28;20540;-79
2020/12/27 08:58:04;;;;;;;7.07;3.70;;;;;;;-0.88;80.99;94915.25;5096837;28;20436;-79
2020/12/27 09:00:32;;;;;;;8.13;4.53;;;;;;;-0.90;80.74;94915.00;5100856;28;20439;-84
2020/12/27 09:03:01;;;;;;;8.20;4.90;;;;;;;-0.87;80.82;94906.78;5102626;28;20453;-82
2020/12/27 09:05:29;;;;;;;7.93;5.30;;;;;;;-0.82;80.91;94915.88;5100670;28;20871;-82
2020/12/27 09:07:56;;;;;;;6.97;4.40;;;;;;;-0.74;80.59;94904.22;5101035;28;20451;-82
2020/12/27 09:10:24;;;;;;;8.00;4.67;;;;;;;-0.69;80.40;94911.38;5102032;28;20437;-82
2020/12/27 09:12:59;;;;;;;6.77;4.83;;;;;;;-0.79;81.17;94906.94;5101132;28;20539;-82
2020/12/27 09:15:28;;;;;;;6.90;4.30;;;;;;;-0.79;81.42;94906.94;5101384;28;20432;-80
2020/12/27 09:18:00;;;;;;;7.00;4.63;;;;;;;-0.65;80.83;94890.63;5100170;28;20519;-80
2020/12/27 09:20:28;;;;;;;5.90;4.23;;;;;;;-0.62;81.18;94878.31;5101618;28;20440;-80
2020/12/27 09:22:55;;;;;;;7.30;4.70;;;;;;;-0.61;81.29;94869.88;5097953;28;20891;-78
2020/12/27 09:25:23;;;;;;;13.40;6.17;;;;;;;-0.50;80.76;94861.03;5095778;28;20445;-78
2020/12/27 09:27:50;;;;;;;12.73;5.27;;;;;;;-0.58;80.69;94849.63;5096722;28;20440;-79
2020/12/27 09:30:18;;;;;;;8.03;4.77;;;;;;;-0.62;80.67;94835.94;5097217;28;20421;-78
2020/12/27 09:32:45;;;;;;;6.90;4.90;;;;;;;-0.61;80.58;94838.09;5101259;28;20456;-81
2020/12/27 09:35:21;;;;;;;7.53;4.73;;;;;;;-0.50;80.22;94837.22;5098017;28;20439;-79
2020/12/27 09:37:48;;;;;;;7.17;5.17;;;;;;;-0.44;79.36;94840.53;5097179;28;20429;-79
2020/12/27 09:40:16;;;;;;;7.00;4.43;;;;;;;-0.50;80.01;94842.50;5097403;28;20488;-79
2020/12/27 09:42:44;;;;;;;8.03;5.10;;;;;;;-0.45;79.66;94833.78;5097930;28;20525;-79
2020/12/27 09:45:21;;;;;;;7.10;4.70;;;;;;;-0.37;79.69;94826.66;5098082;28;20448;-80
2020/12/27 09:47:56;;;;;;;7.80;4.83;;;;;;;-0.39;79.64;94818.50;5098340;28;20545;-79
2020/12/27 09:50:28;;;;;;;8.33;4.33;;;;;;;-0.31;79.14;94803.44;5097903;28;20463;-80
2020/12/27 09:52:54;;;;;;;5.10;4.60;;;;;;;-0.26;79.06;94786.03;5111656;28;20470;-80
2020/12/27 09:55:21;;;;;;;6.63;4.60;;;;;;;-0.20;78.58;94770.75;5118900;28;20504;-80
2020/12/27 09:57:48;;;;;;;7.80;4.77;;;;;;;-0.14;78.14;94750.91;5118970;28;20428;-79
2020/12/27 10:00:15;;;;;;;10.03;5.10;;;;;;;0.02;77.27;94751.09;5118817;28;20428;-83
2020/12/27 10:02:41;;;;;;;13.23;6.77;;;;;;;-0.05;76.76;94736.53;5112044;28;20579;-79
2020/12/27 10:05:08;;;;;;;8.10;4.03;;;;;;;-0.05;75.40;94734.59;5098752;28;20451;-81
2020/12/27 10:07:34;;;;;;;5.53;3.77;;;;;;;-0.07;75.70;94731.75;5096021;28;20496;-81
2020/12/27 10:10:01;;;;;;;8.50;5.10;;;;;;;0.04;74.36;94722.16;5096830;28;20514;-81
2020/12/27 10:12:27;;;;;;;7.77;4.90;;;;;;;0.02;74.32;94706.03;5099420;28;20457;-81
2020/12/27 10:14:54;;;;;;;6.00;4.10;;;;;;;-0.04;74.38;94693.63;5102131;28;20537;-83
2020/12/27 10:17:21;;;;;;;7.80;4.60;;;;;;;0.07;74.24;94694.63;5100690;28;20439;-83
2020/12/27 10:19:47;;;;;;;8.80;6.33;;;;;;;0.11;73.84;94679.13;5098075;28;20992;-79
2020/12/27 10:22:15;;;;;;;5.60;4.37;;;;;;;0.21;73.20;94680.13;5096841;28;20482;-79
2020/12/27 10:24:41;;;;;;;6.80;4.47;;;;;;;0.09;73.77;94676.28;5099447;28;20797;-81
2020/12/27 10:27:08;;;;;;;11.07;4.90;;;;;;;0.24;73.45;94665.84;5100908;28;20444;-81
2020/12/27 10:29:36;;;;;;;14.10;5.70;;;;;;;0.28;73.88;94660.97;5100127;28;20505;-80
2020/12/27 10:32:06;;;;;;;6.87;4.83;;;;;;;0.33;73.24;94646.84;5100065;28;20475;-81
2020/12/27 10:34:32;;;;;;;6.70;4.40;;;;;;;0.40;73.19;94633.69;5099921;28;20577;-80
2020/12/27 10:37:00;;;;;;;9.60;5.07;;;;;;;0.38;73.32;94616.84;5097303;28;20447;-79
2020/12/27 10:39:27;;;;;;;9.27;5.40;;;;;;;0.44;73.89;94614.78;5100174;28;20499;-80
2020/12/27 10:41:54;;;;;;;8.90;6.10;;;;;;;0.50;73.18;94607.44;5101375;28;20878;-81
2020/12/27 10:44:22;;;;;;;12.57;5.33;;;;;;;0.53;73.11;94585.19;5100104;28;20433;-79
2020/12/27 10:46:50;;;;;;;9.73;5.20;;;;;;;0.49;73.48;94582.84;5099865;28;20490;-82
2020/12/27 10:49:18;;;;;;;7.80;5.07;;;;;;;0.56;73.75;94575.47;5099635;28;20472;-80
2020/12/27 10:51:44;;;;;;;8.27;4.90;;;;;;;0.46;74.67;94561.94;5097622;28;20464;-80
2020/12/27 10:54:11;;;;;;;8.00;5.30;;;;;;;0.43;74.98;94562.97;5097220;28;20479;-79
2020/12/27 10:56:38;;;;;;;8.50;6.10;;;;;;;0.54;75.27;94562.72;5096447;28;20817;-79
2020/12/27 10:59:05;;;;;;;7.23;5.20;;;;;;;0.52;75.51;94551.91;5098719;28;20907;-79
2020/12/27 11:01:31;;;;;;;10.13;5.70;;;;;;;0.49;75.40;94532.44;5101009;28;20467;-83
2020/12/27 11:03:57;;;;;;;10.90;6.67;;;;;;;0.59;75.54;94518.72;5105263;28;20448;-83
2020/12/27 11:06:30;;;;;;;10.80;5.83;;;;;;;0.63;75.63;94524.41;5103423;28;20444;-80
2020/12/27 11:08:56;;;;;;;9.30;6.17;;;;;;;0.57;76.42;94523.81;5102373;28;20428;-79
2020/12/27 11:11:22;;;;;;;9.10;6.20;;;;;;;0.70;76.18;94527.13;5100491;28;20465;-80
2020/12/27 11:13:49;;;;;;;8.33;5.97;;;;;;;0.61;76.66;94513.59;5100762;28;20579;-79
2020/12/27 11:16:15;;;;;;;10.03;7.00;;;;;;;0.69;75.45;94506.44;5099058;28;20940;-78
2020/12/27 11:18:42;;;;;;;9.53;6.03;;;;;;;0.66;74.95;94494.88;5103615;28;20464;-83
2020/12/27 11:21:08;;;;;;;15.10;6.40;;;;;;;0.52;76.28;94491.63;5104308;28;20440;-82
2020/12/27 11:23:35;;;;;;;7.60;5.93;;;;;;;0.67;76.12;94498.97;5103919;28;20461;-80
2020/12/27 11:26:02;;;;;;;8.40;6.40;;;;;;;0.71;75.62;94474.75;5101851;28;20444;-80
2020/12/27 11:28:28;;;;;;;8.63;7.20;;;;;;;0.57;76.73;94468.81;5100760;28;20509;-79
2020/12/27 11:30:54;;;;;;;15.13;7.33;;;;;;;0.52;77.18;94448.47;5102168;28;20471;-82
2020/12/27 11:33:21;;;;;;;10.27;7.10;;;;;;;0.44;78.40;94437.06;5101387;28;20476;-78
2020/12/27 11:35:47;;;;;;;13.20;8.70;;;;;;;0.42;78.52;94421.69;5097244;28;20501;-78
2020/12/27 11:38:14;;;;;;;11.30;7.37;;;;;;;0.49;78.53;94407.78;5097699;28;20440;-79